Time;durP1;ratioP1;P1;durP2;ratioP2;P2;SDS_P1;SDS_P2;PMS_P1;PMS_P2;Temp;Humidity;BMP_temperature;BMP_pressure;BME280_temperature;BME280_humidity;BME280_pressure;Samples;Min_cycle;Max_cycle;Signal;HPM_P1;HPM_P2
2023/10/26 00:00:35;;;;;;;25.52;15.05;;;10.50;99.90;;;;;;5003512;28;20157;-72
2023/10/26 00:03:03;;;;;;;24.83;14.82;;;10.50;99.90;;;;;;4998981;28;20034;-72
2023/10/26 00:05:28;;;;;;;22.85;14.05;;;10.50;99.90;;;;;;4998908;28;20117;-72
2023/10/26 00:07:54;;;;;;;24.10;14.45;;;10.50;99.90;;;;;;4996843;28;20034;-72
2023/10/26 00:10:22;;;;;;;26.77;14.52;;;10.60;99.90;;;;;;5017156;28;20038;-72
2023/10/26 00:12:54;;;;;;;24.30;14.40;;;10.50;99.90;;;;;;4993772;28;20030;-72
2023/10/26 00:15:23;;;;;;;23.42;14.27;;;10.40;99.90;;;;;;5003597;28;20037;-72
2023/10/26 00:17:48;;;;;;;26.33;13.57;;;10.40;99.90;;;;;;5002318;28;20499;-72
2023/10/26 00:20:14;;;;;;;23.42;14.68;;;10.40;99.90;;;;;;5003937;28;20477;-73
2023/10/26 00:22:42;;;;;;;21.33;15.30;;;10.50;99.90;;;;;;5001690;28;20136;-72
2023/10/26 00:25:09;;;;;;;24.40;15.63;;;10.40;99.90;;;;;;4995491;28;20042;-72
2023/10/26 00:27:40;;;;;;;25.25;15.45;;;10.40;99.90;;;;;;5005856;28;20058;-72
2023/10/26 00:30:10;;;;;;;23.98;15.38;;;10.40;99.90;;;;;;4995063;28;20125;-72
2023/10/26 00:32:36;;;;;;;23.27;15.18;;;10.40;99.90;;;;;;4995891;28;20037;-72
2023/10/26 00:35:03;;;;;;;23.80;14.77;;;10.40;99.90;;;;;;4995785;28;20053;-72
2023/10/26 00:37:29;;;;;;;22.58;14.88;;;10.40;99.90;;;;;;4994435;28;20077;-72
2023/10/26 00:39:54;;;;;;;22.20;15.40;;;10.40;99.90;;;;;;4979436;28;20109;-72
2023/10/26 00:42:20;;;;;;;20.83;13.70;;;10.40;99.90;;;;;;4994173;28;20050;-71
2023/10/26 00:44:46;;;;;;;27.13;15.70;;;10.40;99.90;;;;;;4985759;28;20096;-73
2023/10/26 00:47:15;;;;;;;25.90;15.50;;;10.40;99.90;;;;;;5001991;28;20376;-72
2023/10/26 00:49:42;;;;;;;25.92;15.35;;;10.40;99.90;;;;;;5007549;28;20405;-72
2023/10/26 00:52:09;;;;;;;25.00;15.98;;;10.40;99.90;;;;;;4995344;28;20050;-72
2023/10/26 00:54:37;;;;;;;31.27;16.55;;;10.40;99.90;;;;;;4996741;28;20044;-72
2023/10/26 00:57:20;;;;;;;25.40;15.38;;;10.40;99.90;;;;;;4992444;28;20037;-72
2023/10/26 00:59:47;;;;;;;23.33;15.45;;;10.40;99.90;;;;;;5007955;28;20038;-71
2023/10/26 01:02:15;;;;;;;27.40;15.68;;;10.40;99.90;;;;;;5001641;28;20129;-72
2023/10/26 01:04:41;;;;;;;23.70;14.75;;;10.40;99.90;;;;;;4979757;28;20053;-72
2023/10/26 01:07:07;;;;;;;22.02;15.10;;;10.40;99.90;;;;;;4996006;28;20072;-72
2023/10/26 01:09:32;;;;;;;21.95;15.15;;;10.40;99.90;;;;;;5004267;28;20499;-72
2023/10/26 01:11:58;;;;;;;31.02;15.73;;;10.40;99.90;;;;;;5019644;28;20045;-71
2023/10/26 01:14:24;;;;;;;24.83;15.80;;;10.40;99.90;;;;;;4996443;28;20083;-71
2023/10/26 01:16:49;;;;;;;26.83;15.68;;;10.40;99.90;;;;;;4999959;28;20549;-72
2023/10/26 01:19:15;;;;;;;24.20;16.02;;;10.40;99.90;;;;;;4997417;28;20521;-72
2023/10/26 01:21:48;;;;;;;24.60;15.75;;;10.40;99.90;;;;;;5008850;28;20052;-71
2023/10/26 01:24:14;;;;;;;23.75;15.48;;;10.40;99.90;;;;;;4997407;28;20044;-72
2023/10/26 01:26:42;;;;;;;25.27;15.23;;;10.40;99.90;;;;;;5004240;28;20494;-72
2023/10/26 01:29:09;;;;;;;28.20;15.60;;;10.40;99.90;;;;;;4977152;28;20042;-72
2023/10/26 01:31:34;;;;;;;28.33;16.70;;;10.40;99.90;;;;;;5001106;28;20077;-73
2023/10/26 01:34:00;;;;;;;24.80;15.38;;;10.70;99.90;;;;;;4966244;28;20049;-71
2023/10/26 01:36:26;;;;;;;24.35;15.23;;;10.40;99.90;;;;;;5005551;28;20049;-72
2023/10/26 01:38:56;;;;;;;22.52;14.70;;;10.40;99.90;;;;;;4985411;28;20100;-71
2023/10/26 01:41:22;;;;;;;22.17;15.05;;;10.40;99.90;;;;;;4961817;28;20169;-72
2023/10/26 01:43:48;;;;;;;24.70;16.58;;;10.30;99.90;;;;;;4991972;28;20061;-71
2023/10/26 01:46:13;;;;;;;26.13;15.63;;;10.30;99.90;;;;;;4993923;28;20452;-71
2023/10/26 01:48:39;;;;;;;28.23;17.00;;;10.30;99.90;;;;;;5002259;28;20396;-71
2023/10/26 01:51:05;;;;;;;24.35;15.40;;;10.30;99.90;;;;;;5010728;28;20039;-71
2023/10/26 01:53:30;;;;;;;28.35;16.38;;;10.30;99.90;;;;;;4996833;28;20104;-72
2023/10/26 01:55:56;;;;;;;23.15;15.55;;;10.30;99.90;;;;;;4989437;28;20030;-72
2023/10/26 01:58:22;;;;;;;25.08;15.50;;;10.30;99.90;;;;;;4994229;28;20091;-72
2023/10/26 02:00:48;;;;;;;28.70;16.50;;;10.30;99.90;;;;;;4993017;28;20042;-71
2023/10/26 02:03:15;;;;;;;24.25;15.88;;;10.20;99.90;;;;;;4982550;28;20523;-71
2023/10/26 02:05:41;;;;;;;23.23;15.63;;;10.20;99.90;;;;;;4990201;28;20111;-71
2023/10/26 02:08:07;;;;;;;26.98;15.27;;;10.20;99.90;;;;;;4993429;28;20125;-72
2023/10/26 02:10:34;;;;;;;25.30;15.43;;;10.20;99.90;;;;;;5003991;28;20039;-71
2023/10/26 02:13:03;;;;;;;22.88;15.35;;;10.20;99.90;;;;;;5005827;28;20046;-72
2023/10/26 02:15:29;;;;;;;26.13;15.60;;;10.20;99.90;;;;;;5007954;28;20046;-72
2023/10/26 02:17:56;;;;;;;26.20;16.70;;;10.20;99.90;;;;;;5003214;28;20084;-72
2023/10/26 02:20:22;;;;;;;24.73;16.42;;;10.10;99.90;;;;;;5007293;28;20545;-71
2023/10/26 02:22:47;;;;;;;23.85;16.13;;;10.20;99.90;;;;;;4999661;28;20129;-72
2023/10/26 02:25:13;;;;;;;26.75;17.20;;;10.20;99.90;;;;;;5002472;28;20081;-72
2023/10/26 02:27:39;;;;;;;30.20;17.48;;;10.20;99.90;;;;;;5003404;28;20121;-71
2023/10/26 02:30:05;;;;;;;27.58;16.60;;;10.20;99.90;;;;;;5003769;28;20042;-71
2023/10/26 02:32:32;;;;;;;24.60;16.08;;;10.20;99.90;;;;;;4996754;28;20042;-71
2023/10/26 02:35:04;;;;;;;26.80;16.90;;;10.20;99.90;;;;;;4996958;28;20034;-72
2023/10/26 02:37:33;;;;;;;27.38;16.67;;;10.20;99.90;;;;;;5000281;28;20042;-72
2023/10/26 02:39:58;;;;;;;27.42;16.92;;;10.20;99.90;;;;;;5004833;28;20113;-71
2023/10/26 02:42:27;;;;;;;32.15;17.73;;;10.20;99.90;;;;;;4996997;28;20046;-72
2023/10/26 02:44:56;;;;;;;29.67;17.60;;;10.20;99.90;;;;;;5003116;28;20042;-72
2023/10/26 02:47:23;;;;;;;30.27;17.92;;;10.20;99.90;;;;;;5000502;28;20080;-72
2023/10/26 02:49:49;;;;;;;32.47;18.67;;;10.20;99.90;;;;;;4996666;28;20582;-73
2023/10/26 02:52:15;;;;;;;23.83;16.58;;;10.20;99.90;;;;;;5018781;28;20091;-71
2023/10/26 02:54:42;;;;;;;35.17;18.88;;;10.20;99.90;;;;;;5000877;28;20826;-72
2023/10/26 02:57:08;;;;;;;32.58;18.30;;;10.20;99.90;;;;;;4968923;28;20384;-71
2023/10/26 02:59:34;;;;;;;32.47;19.13;;;10.20;99.90;;;;;;5001108;28;20422;-71
2023/10/26 03:02:00;;;;;;;30.58;18.80;;;10.20;99.90;;;;;;4994519;28;20042;-72
2023/10/26 03:04:26;;;;;;;31.52;18.80;;;10.10;99.90;;;;;;5000224;28;20049;-71
2023/10/26 03:06:52;;;;;;;36.97;18.70;;;10.20;99.90;;;;;;5004578;28;20089;-72
2023/10/26 03:09:19;;;;;;;31.08;19.77;;;10.20;99.90;;;;;;5002927;28;20069;-72
2023/10/26 03:11:51;;;;;;;31.48;19.13;;;10.20;99.90;;;;;;4992554;28;20483;-71
2023/10/26 03:14:18;;;;;;;28.57;18.83;;;10.20;99.90;;;;;;4996365;28;20044;-72
2023/10/26 03:16:46;;;;;;;26.73;18.17;;;10.20;99.90;;;;;;4998719;28;20030;-72
2023/10/26 03:19:12;;;;;;;30.13;18.88;;;11.00;99.90;;;;;;4995190;28;20057;-73
2023/10/26 03:21:38;;;;;;;31.75;19.35;;;10.10;99.90;;;;;;4999172;28;20042;-71
2023/10/26 03:24:10;;;;;;;33.72;19.25;;;10.20;99.90;;;;;;5003534;28;20414;-72
2023/10/26 03:26:37;;;;;;;31.52;19.77;;;10.20;99.90;;;;;;5001278;28;20422;-72
2023/10/26 03:29:04;;;;;;;33.53;20.10;;;10.20;99.90;;;;;;5005069;28;20129;-71
2023/10/26 03:31:31;;;;;;;28.20;18.88;;;10.10;99.90;;;;;;4999260;28;20065;-72
2023/10/26 03:33:57;;;;;;;30.60;19.65;;;10.10;99.90;;;;;;5000732;28;20100;-71
2023/10/26 03:36:23;;;;;;;35.30;19.70;;;10.20;99.90;;;;;;5003427;28;20042;-71
2023/10/26 03:38:51;;;;;;;32.00;19.75;;;10.10;99.90;;;;;;5004274;28;20037;-71
2023/10/26 03:41:18;;;;;;;32.17;19.60;;;10.20;99.90;;;;;;5002574;28;20077;-71
2023/10/26 03:43:46;;;;;;;31.52;20.65;;;10.20;99.90;;;;;;4986373;28;20038;-71
2023/10/26 03:46:12;;;;;;;31.38;21.27;;;10.10;99.90;;;;;;5011450;28;20510;-72
2023/10/26 03:48:38;;;;;;;34.35;20.50;;;10.10;99.90;;;;;;5005447;28;20414;-72
2023/10/26 03:51:05;;;;;;;34.00;19.85;;;10.10;99.90;;;;;;4993614;28;20411;-71
2023/10/26 03:53:32;;;;;;;34.15;20.58;;;10.10;99.90;;;;;;4976360;28;20066;-71
2023/10/26 03:55:59;;;;;;;34.47;21.17;;;10.10;99.90;;;;;;4987108;28;20035;-71
2023/10/26 03:58:25;;;;;;;32.55;20.60;;;10.10;99.90;;;;;;4989971;28;20399;-71
2023/10/26 04:00:56;;;;;;;34.53;21.05;;;10.10;99.90;;;;;;4996896;28;20038;-71
2023/10/26 04:03:22;;;;;;;36.03;21.15;;;10.10;99.90;;;;;;4989959;28;20120;-71
2023/10/26 04:05:47;;;;;;;35.60;21.42;;;10.10;99.90;;;;;;4999132;28;20499;-72
2023/10/26 04:08:14;;;;;;;35.80;21.50;;;10.10;99.90;;;;;;5005312;28;20445;-70
2023/10/26 04:10:41;;;;;;;35.85;22.33;;;10.10;99.90;;;;;;4997366;28;20038;-71
2023/10/26 04:13:08;;;;;;;38.13;22.20;;;10.10;99.90;;;;;;4997624;28;20055;-71
2023/10/26 04:15:35;;;;;;;38.08;22.80;;;10.10;99.90;;;;;;4992645;28;20034;-72
2023/10/26 04:18:05;;;;;;;37.00;23.13;;;10.30;99.90;;;;;;5001674;28;20042;-72
2023/10/26 04:20:31;;;;;;;41.92;22.88;;;10.10;99.90;;;;;;4997800;28;20050;-72
2023/10/26 04:22:57;;;;;;;42.03;24.63;;;10.10;99.90;;;;;;4993580;28;20038;-73
2023/10/26 04:25:27;;;;;;;43.72;23.95;;;10.10;99.90;;;;;;4992706;28;20034;-72
2023/10/26 04:27:55;;;;;;;37.08;23.45;;;10.00;99.90;;;;;;4975755;28;20078;-74
2023/10/26 04:30:21;;;;;;;40.15;23.40;;;10.10;99.90;;;;;;4994044;28;20037;-73
2023/10/26 04:32:47;;;;;;;37.63;23.15;;;10.10;99.90;;;;;;4992287;28;20040;-72
2023/10/26 04:35:13;;;;;;;39.08;25.08;;;10.00;99.90;;;;;;4991276;28;20117;-72
2023/10/26 04:37:39;;;;;;;39.00;24.65;;;10.10;99.90;;;;;;4974684;28;20046;-72
2023/10/26 04:40:06;;;;;;;38.40;23.77;;;10.10;99.90;;;;;;4995085;28;20061;-72
2023/10/26 04:42:31;;;;;;;46.97;26.02;;;10.10;99.90;;;;;;4996930;28;20034;-73
2023/10/26 04:45:00;;;;;;;43.10;25.67;;;10.10;99.90;;;;;;4995538;28;20134;-73
2023/10/26 04:47:26;;;;;;;45.28;24.75;;;10.10;99.90;;;;;;4995809;28;20041;-73
2023/10/26 04:49:52;;;;;;;41.00;25.33;;;10.10;99.90;;;;;;4997362;28;20137;-73
2023/10/26 04:52:20;;;;;;;39.80;23.92;;;10.10;99.90;;;;;;5020061;28;20583;-72
2023/10/26 04:54:47;;;;;;;39.88;23.92;;;10.10;99.90;;;;;;4997770;28;20031;-73
2023/10/26 04:57:13;;;;;;;45.22;25.67;;;10.10;99.90;;;;;;5000838;28;20560;-73
2023/10/26 04:59:39;;;;;;;41.42;25.25;;;10.10;99.90;;;;;;4995120;28;20113;-72
2023/10/26 05:02:04;;;;;;;42.60;25.55;;;10.10;99.90;;;;;;4993976;28;20523;-72
2023/10/26 05:04:30;;;;;;;39.35;24.45;;;10.10;99.90;;;;;;4998315;28;20038;-73
2023/10/26 05:06:59;;;;;;;40.65;25.25;;;10.10;99.90;;;;;;4998921;28;20037;-73
2023/10/26 05:09:25;;;;;;;38.80;24.33;;;10.10;99.90;;;;;;5004738;28;20088;-72
2023/10/26 05:12:02;;;;;;;36.25;23.90;;;10.10;99.90;;;;;;4997692;28;20039;-72
2023/10/26 05:14:31;;;;;;;35.53;23.60;;;10.00;99.90;;;;;;5003536;28;20100;-72
2023/10/26 05:16:59;;;;;;;39.08;22.70;;;10.00;99.90;;;;;;4998644;28;20084;-72
2023/10/26 05:19:26;;;;;;;38.85;22.40;;;9.90;99.90;;;;;;5002672;28;20098;-72
2023/10/26 05:21:51;;;;;;;35.10;23.17;;;9.90;99.90;;;;;;4996823;28;20563;-72
2023/10/26 05:24:17;;;;;;;40.85;22.75;;;9.90;99.90;;;;;;4977727;28;20053;-72
2023/10/26 05:26:43;;;;;;;33.45;21.70;;;9.80;99.90;;;;;;4992022;28;20038;-72
2023/10/26 05:29:09;;;;;;;34.15;22.20;;;9.80;99.90;;;;;;5019748;28;20065;-72
2023/10/26 05:31:34;;;;;;;33.85;21.45;;;9.80;99.90;;;;;;4998618;28;20408;-72
2023/10/26 05:34:00;;;;;;;36.10;21.00;;;9.80;99.90;;;;;;4996634;28;20038;-72
2023/10/26 05:36:26;;;;;;;30.50;20.67;;;9.70;99.90;;;;;;4992781;28;20038;-73
2023/10/26 05:38:51;;;;;;;34.30;20.88;;;9.70;99.90;;;;;;4999736;28;20118;-72
2023/10/26 05:41:17;;;;;;;32.30;20.25;;;9.60;99.90;;;;;;5003204;28;20045;-72
2023/10/26 05:43:43;;;;;;;32.33;19.55;;;9.80;99.90;;;;;;4986460;28;20406;-73
2023/10/26 05:46:13;;;;;;;35.13;20.30;;;9.60;99.90;;;;;;5000493;28;20045;-72
2023/10/26 05:48:38;;;;;;;31.02;20.50;;;9.50;99.90;;;;;;4997480;28;20641;-72
2023/10/26 05:51:04;;;;;;;30.08;18.85;;;9.70;99.90;;;;;;4994463;28;20053;-72
2023/10/26 05:53:30;;;;;;;28.30;18.20;;;9.50;99.90;;;;;;4996465;28;20533;-72
2023/10/26 05:55:59;;;;;;;30.73;19.17;;;9.50;99.90;;;;;;5004036;28;20133;-72
2023/10/26 05:58:26;;;;;;;31.77;19.25;;;9.50;99.90;;;;;;4997797;28;20109;-73
2023/10/26 06:00:52;;;;;;;29.20;18.95;;;9.50;99.90;;;;;;4989111;28;20061;-72
2023/10/26 06:03:17;;;;;;;31.08;20.83;;;9.50;99.90;;;;;;4988069;28;20046;-71
2023/10/26 06:05:49;;;;;;;31.80;21.00;;;9.50;99.90;;;;;;4989476;28;20118;-72
2023/10/26 06:08:15;;;;;;;38.30;23.13;;;9.50;99.90;;;;;;4995823;28;21132;-72
2023/10/26 06:10:41;;;;;;;34.35;22.70;;;9.50;99.90;;;;;;4993233;28;20050;-71
2023/10/26 06:13:07;;;;;;;36.50;22.30;;;9.50;99.90;;;;;;4993815;28;20031;-72
2023/10/26 06:15:34;;;;;;;34.00;22.27;;;9.50;99.90;;;;;;5000002;28;20038;-72
2023/10/26 06:18:00;;;;;;;33.15;22.55;;;9.50;99.90;;;;;;4990785;28;20038;-72
2023/10/26 06:20:28;;;;;;;32.65;22.52;;;9.50;99.90;;;;;;4996031;28;20574;-73
2023/10/26 06:22:56;;;;;;;32.33;22.50;;;9.50;99.90;;;;;;4992517;28;20088;-72
2023/10/26 06:25:25;;;;;;;31.23;21.40;;;9.60;99.90;;;;;;4986552;28;20406;-72
2023/10/26 06:27:51;;;;;;;32.13;21.52;;;9.70;99.90;;;;;;4999722;28;20368;-74
2023/10/26 06:30:17;;;;;;;32.10;21.63;;;9.60;99.90;;;;;;4992742;28;20041;-72
2023/10/26 06:32:43;;;;;;;33.15;22.48;;;9.60;99.90;;;;;;4999943;28;20038;-72
2023/10/26 06:35:10;;;;;;;32.78;21.30;;;9.60;99.90;;;;;;4987154;28;20039;-72
2023/10/26 06:37:37;;;;;;;35.50;22.45;;;9.60;99.90;;;;;;5001957;28;20046;-72
2023/10/26 06:40:06;;;;;;;29.65;21.10;;;9.60;99.90;;;;;;5000394;28;20046;-72
2023/10/26 06:42:34;;;;;;;31.30;20.50;;;9.60;99.90;;;;;;5003381;28;20038;-73
2023/10/26 06:45:03;;;;;;;31.75;21.13;;;9.60;99.90;;;;;;4994420;28;20046;-72
2023/10/26 06:47:31;;;;;;;30.30;20.08;;;9.60;99.90;;;;;;5018774;28;20510;-71
2023/10/26 06:49:57;;;;;;;31.67;21.35;;;9.60;99.90;;;;;;5000024;28;20046;-72
2023/10/26 06:52:26;;;;;;;30.65;20.90;;;9.60;99.90;;;;;;4999960;28;20038;-72
2023/10/26 06:54:52;;;;;;;28.65;20.10;;;9.70;99.90;;;;;;5000216;28;20459;-72
2023/10/26 06:57:18;;;;;;;29.27;20.52;;;9.70;99.90;;;;;;4997718;28;20073;-72
2023/10/26 06:59:45;;;;;;;28.48;21.10;;;9.70;99.90;;;;;;5006161;28;20084;-73
2023/10/26 07:02:12;;;;;;;30.63;20.30;;;9.70;99.90;;;;;;4998906;28;20038;-72
2023/10/26 07:04:38;;;;;;;31.13;19.67;;;9.70;99.90;;;;;;5006031;28;20108;-73
2023/10/26 07:07:04;;;;;;;28.10;19.73;;;9.70;99.90;;;;;;5010548;28;20035;-72
2023/10/26 07:09:30;;;;;;;27.95;19.42;;;9.70;99.90;;;;;;5005929;28;20042;-72
2023/10/26 07:11:55;;;;;;;26.63;18.98;;;9.70;99.90;;;;;;4987799;28;20436;-72
2023/10/26 07:14:21;;;;;;;29.52;19.42;;;9.70;99.90;;;;;;5009680;28;20042;-72
2023/10/26 07:16:47;;;;;;;28.27;19.92;;;9.70;99.90;;;;;;5003003;28;20042;-72
2023/10/26 07:19:12;;;;;;;27.92;19.73;;;9.80;99.90;;;;;;4998984;28;20038;-73
2023/10/26 07:21:38;;;;;;;27.25;20.13;;;9.70;99.90;;;;;;5005229;28;20041;-73
2023/10/26 07:24:04;;;;;;;29.08;19.95;;;9.80;99.90;;;;;;5002287;28;20048;-73
2023/10/26 07:26:29;;;;;;;26.33;19.52;;;9.80;99.90;;;;;;5000916;28;20033;-72
2023/10/26 07:28:57;;;;;;;28.75;19.23;;;9.80;99.90;;;;;;5005949;28;20568;-72
2023/10/26 07:31:23;;;;;;;27.35;19.60;;;9.80;99.90;;;;;;5003256;28;20453;-72
2023/10/26 07:33:49;;;;;;;26.77;19.92;;;9.80;99.90;;;;;;5010809;28;20093;-72
2023/10/26 07:36:14;;;;;;;29.90;20.33;;;9.80;99.90;;;;;;5004384;28;20038;-72
2023/10/26 07:38:41;;;;;;;26.08;19.25;;;9.90;99.90;;;;;;5005028;28;20034;-72
2023/10/26 07:41:08;;;;;;;28.58;20.40;;;9.90;99.90;;;;;;4989049;28;20611;-72
2023/10/26 07:43:35;;;;;;;28.10;19.55;;;9.90;99.90;;;;;;5011072;28;20050;-72
2023/10/26 07:46:03;;;;;;;28.63;20.02;;;9.90;99.90;;;;;;5005634;28;20042;-72
2023/10/26 07:48:28;;;;;;;27.48;19.58;;;10.00;99.90;;;;;;4996336;28;20129;-72
2023/10/26 07:50:55;;;;;;;27.65;19.23;;;10.00;99.90;;;;;;4990907;28;20474;-72
2023/10/26 07:53:24;;;;;;;29.02;19.98;;;10.00;99.90;;;;;;4991015;28;20042;-72
2023/10/26 07:55:56;;;;;;;29.80;19.83;;;10.00;99.90;;;;;;4991966;28;20125;-72
2023/10/26 07:58:22;;;;;;;27.17;20.10;;;10.10;99.90;;;;;;4987954;28;20047;-71
2023/10/26 08:00:47;;;;;;;29.17;19.63;;;10.10;99.90;;;;;;4991268;28;20046;-72
2023/10/26 08:03:13;;;;;;;29.27;20.23;;;10.20;99.90;;;;;;5008467;28;20125;-72
2023/10/26 08:05:39;;;;;;;31.67;21.05;;;10.20;99.90;;;;;;5000799;28;20150;-72
2023/10/26 08:08:07;;;;;;;28.88;20.80;;;10.20;99.90;;;;;;4997130;28;20058;-72
2023/10/26 08:10:36;;;;;;;31.52;21.38;;;10.30;99.90;;;;;;4999355;28;20129;-72
2023/10/26 08:13:03;;;;;;;28.08;20.65;;;10.30;99.90;;;;;;5003922;28;20438;-71
2023/10/26 08:15:29;;;;;;;30.98;20.10;;;10.30;99.90;;;;;;5007248;28;20061;-72
2023/10/26 08:17:54;;;;;;;34.35;22.50;;;10.30;99.90;;;;;;4988510;28;20069;-72
2023/10/26 08:20:20;;;;;;;31.70;22.10;;;10.40;99.90;;;;;;4977772;28;20045;-73
2023/10/26 08:22:49;;;;;;;29.00;21.02;;;10.40;99.90;;;;;;4990965;28;20066;-72
2023/10/26 08:25:16;;;;;;;32.17;21.33;;;10.50;99.90;;;;;;5009602;28;20057;-72
2023/10/26 08:27:43;;;;;;;31.42;21.30;;;10.50;99.90;;;;;;5005222;28;20039;-71
2023/10/26 08:30:10;;;;;;;31.42;21.73;;;10.60;99.90;;;;;;5000976;28;20042;-72
2023/10/26 08:32:35;;;;;;;34.03;22.35;;;10.60;99.90;;;;;;4995188;28;20042;-72
2023/10/26 08:35:01;;;;;;;40.15;23.05;;;10.80;99.90;;;;;;4997795;28;20483;-73
2023/10/26 08:37:27;;;;;;;34.42;23.10;;;10.70;99.90;;;;;;4997246;28;20037;-72
2023/10/26 08:39:53;;;;;;;32.58;23.20;;;10.70;99.90;;;;;;4982367;28;20042;-72
2023/10/26 08:42:19;;;;;;;34.65;21.90;;;10.70;99.90;;;;;;5009314;28;20050;-72
2023/10/26 08:44:45;;;;;;;34.28;22.95;;;10.70;99.90;;;;;;5002388;28;20038;-72
2023/10/26 08:47:14;;;;;;;35.15;23.35;;;10.80;99.90;;;;;;5002992;28;20058;-72
2023/10/26 08:49:42;;;;;;;34.33;23.85;;;10.80;99.90;;;;;;5004012;28;20503;-72
2023/10/26 08:52:08;;;;;;;41.78;25.65;;;10.90;99.90;;;;;;4983554;28;20093;-72
2023/10/26 08:54:33;;;;;;;34.90;23.58;;;10.90;99.90;;;;;;4997680;28;20054;-72
2023/10/26 08:57:07;;;;;;;37.10;24.13;;;11.00;99.90;;;;;;4994131;28;20044;-72
2023/10/26 08:59:33;;;;;;;38.83;23.88;;;11.00;99.90;;;;;;5003340;28;20091;-72
2023/10/26 09:01:59;;;;;;;39.63;25.30;;;11.00;99.90;;;;;;4995235;28;20134;-72
2023/10/26 09:04:26;;;;;;;37.55;24.50;;;11.00;99.90;;;;;;5024369;28;20553;-72
2023/10/26 09:06:52;;;;;;;39.22;25.17;;;11.00;99.90;;;;;;4996319;28;20571;-72
2023/10/26 09:09:18;;;;;;;41.38;26.30;;;11.00;99.90;;;;;;5003592;28;20045;-73
2023/10/26 09:11:48;;;;;;;39.72;26.58;;;11.00;99.90;;;;;;5000868;28;20046;-72
2023/10/26 09:14:14;;;;;;;38.75;26.80;;;11.00;99.90;;;;;;4991944;28;20553;-72
2023/10/26 09:16:41;;;;;;;39.58;25.83;;;11.10;99.90;;;;;;4984141;28;20081;-73
2023/10/26 09:19:07;;;;;;;42.47;26.35;;;11.10;99.90;;;;;;4994494;28;20038;-72
2023/10/26 09:21:54;;;;;;;37.58;25.80;;;11.20;99.90;;;;;;4998016;28;20042;-72
2023/10/26 09:24:24;;;;;;;38.50;24.27;;;11.10;99.90;;;;;;4986711;28;20406;-73
2023/10/26 09:26:51;;;;;;;37.72;24.55;;;11.10;99.90;;;;;;4999976;28;20046;-72
2023/10/26 09:29:18;;;;;;;40.50;24.77;;;11.10;99.90;;;;;;5003559;28;20223;-72
2023/10/26 09:31:52;;;;;;;36.90;24.88;;;11.20;99.90;;;;;;5016047;28;20042;-72
2023/10/26 09:34:18;;;;;;;37.95;23.83;;;11.20;99.90;;;;;;4999819;28;20038;-72
2023/10/26 09:37:01;;;;;;;35.65;25.00;;;11.20;99.90;;;;;;5003497;28;20533;-72
2023/10/26 09:39:38;;;;;;;38.97;24.88;;;11.30;99.90;;;;;;4988154;28;20031;-72
2023/10/26 09:42:09;;;;;;;33.50;22.58;;;11.30;99.90;;;;;;5002179;28;20049;-72
2023/10/26 09:44:36;;;;;;;35.67;23.27;;;11.30;99.90;;;;;;4998203;28;20042;-72
2023/10/26 09:47:03;;;;;;;38.63;22.75;;;11.40;99.90;;;;;;4980628;28;20046;-72
2023/10/26 09:49:28;;;;;;;35.63;22.15;;;11.30;99.90;;;;;;4996249;28;20057;-72
2023/10/26 09:51:55;;;;;;;32.53;22.63;;;11.30;99.90;;;;;;4997965;28;20042;-72
2023/10/26 09:54:36;;;;;;;35.58;23.30;;;11.30;99.90;;;;;;4984259;28;20034;-72
2023/10/26 09:57:09;;;;;;;38.42;24.30;;;11.40;99.90;;;;;;5002154;28;20062;-72
2023/10/26 09:59:37;;;;;;;34.50;24.05;;;11.40;99.90;;;;;;4988534;28;20039;-72
2023/10/26 10:02:16;;;;;;;33.03;22.70;;;11.50;99.90;;;;;;4995436;28;20100;-72
2023/10/26 10:04:42;;;;;;;34.13;22.95;;;11.50;99.90;;;;;;4999164;28;20042;-72
2023/10/26 10:07:08;;;;;;;32.15;20.88;;;11.50;99.90;;;;;;5002690;28;20038;-72
2023/10/26 10:10:03;;;;;;;27.50;19.95;;;11.60;99.90;;;;;;4999544;28;20109;-72
2023/10/26 10:12:34;;;;;;;29.23;19.67;;;11.70;99.90;;;;;;4993013;28;20514;-72
2023/10/26 10:15:03;;;;;;;30.33;21.48;;;11.80;99.90;;;;;;4990311;28;20062;-72
2023/10/26 10:17:44;;;;;;;33.70;21.73;;;11.90;99.90;;;;;;5003622;28;20034;-73
2023/10/26 10:20:18;;;;;;;31.95;22.50;;;11.90;99.90;;;;;;5002700;28;20523;-73
2023/10/26 10:22:45;;;;;;;33.75;21.55;;;12.00;99.90;;;;;;5004796;28;20585;-73
2023/10/26 10:25:14;;;;;;;32.03;21.35;;;12.00;99.90;;;;;;4985473;28;20052;-73
2023/10/26 10:27:51;;;;;;;32.92;22.17;;;12.10;99.90;;;;;;4983194;28;20042;-73
2023/10/26 10:30:21;;;;;;;29.55;21.10;;;12.00;99.90;;;;;;5007091;28;20045;-73
2023/10/26 10:32:49;;;;;;;31.83;21.73;;;12.10;99.90;;;;;;4985123;28;20046;-73
2023/10/26 10:35:41;;;;;;;31.55;20.70;;;12.10;99.90;;;;;;5007015;28;20046;-73
2023/10/26 10:38:13;;;;;;;31.02;20.60;;;12.20;99.90;;;;;;4990591;28;20034;-72
2023/10/26 10:40:54;;;;;;;30.48;20.75;;;12.30;99.90;;;;;;4986160;28;20530;-72
2023/10/26 10:43:32;;;;;;;27.67;20.80;;;12.30;99.90;;;;;;5009618;28;20589;-73
2023/10/26 10:46:21;;;;;;;28.15;19.77;;;12.40;99.90;;;;;;4999373;28;20134;-73
2023/10/26 10:48:54;;;;;;;31.55;21.00;;;12.40;99.90;;;;;;5002478;28;20046;-73
2023/10/26 10:51:22;;;;;;;29.40;20.73;;;12.50;99.90;;;;;;5006213;28;20121;-72
2023/10/26 10:53:50;;;;;;;30.20;19.95;;;12.50;99.90;;;;;;4990098;28;20047;-73
2023/10/26 10:56:17;;;;;;;27.33;19.80;;;12.50;99.90;;;;;;5012295;28;20121;-73
2023/10/26 10:58:45;;;;;;;26.95;19.17;;;12.50;99.90;;;;;;4986634;28;20690;-73
2023/10/26 11:01:21;;;;;;;25.85;18.65;;;13.20;99.90;;;;;;4983793;28;20038;-73
2023/10/26 11:03:49;;;;;;;28.15;18.23;;;12.40;99.90;;;;;;5001623;28;20047;-73
2023/10/26 11:06:23;;;;;;;26.70;18.38;;;12.60;99.90;;;;;;5006856;28;20549;-73
2023/10/26 11:08:50;;;;;;;24.00;17.13;;;12.60;99.90;;;;;;4989496;28;20049;-73
2023/10/26 11:11:27;;;;;;;32.58;18.00;;;12.70;99.90;;;;;;5007136;28;20034;-73
2023/10/26 11:14:09;;;;;;;21.92;16.17;;;12.90;99.90;;;;;;4998261;28;20405;-73
2023/10/26 11:16:35;;;;;;;;;;;13.00;99.90;;;;;;4982113;28;20077;-73
2023/10/26 11:19:02;;;;;;;22.25;15.57;;;13.00;99.90;;;;;;5003112;28;20314;-73
2023/10/26 11:21:28;;;;;;;24.95;14.85;;;13.10;99.90;;;;;;4990077;28;20046;-73
2023/10/26 11:23:56;;;;;;;21.88;15.68;;;13.00;99.90;;;;;;4999077;28;20049;-73
2023/10/26 11:26:22;;;;;;;19.70;14.82;;;13.00;99.90;;;;;;4986324;28;20129;-73
2023/10/26 11:28:48;;;;;;;20.08;15.05;;;13.00;99.90;;;;;;4995287;28;20412;-73
2023/10/26 11:31:13;;;;;;;21.00;14.18;;;13.00;99.90;;;;;;5001188;28;20134;-73
2023/10/26 11:33:39;;;;;;;20.88;14.18;;;12.90;99.90;;;;;;5002274;28;20038;-73
2023/10/26 11:36:10;;;;;;;19.98;14.80;;;12.90;99.90;;;;;;5003047;28;20038;-73
2023/10/26 11:38:44;;;;;;;21.25;15.18;;;12.80;99.90;;;;;;5005654;28;20117;-72
2023/10/26 11:41:10;;;;;;;22.83;15.10;;;12.80;99.90;;;;;;4984777;28;20128;-72
2023/10/26 11:43:37;;;;;;;24.05;15.10;;;12.70;99.90;;;;;;4986947;28;20050;-73
2023/10/26 11:46:03;;;;;;;20.73;15.20;;;12.80;99.90;;;;;;4997628;28;20452;-73
2023/10/26 11:48:33;;;;;;;19.30;13.60;;;12.80;99.90;;;;;;4987648;28;20495;-73
2023/10/26 11:51:06;;;;;;;21.23;14.15;;;12.80;99.90;;;;;;5008327;28;20810;-73
2023/10/26 11:53:32;;;;;;;21.27;14.75;;;12.80;99.90;;;;;;4997490;28;20510;-73
2023/10/26 11:55:58;;;;;;;18.02;12.63;;;12.80;99.90;;;;;;4984839;28;20392;-73
2023/10/26 11:58:24;;;;;;;16.30;12.73;;;12.80;99.90;;;;;;5001629;28;20034;-73
2023/10/26 12:00:50;;;;;;;17.45;12.07;;;12.90;99.90;;;;;;5002280;28;20126;-73
2023/10/26 12:03:16;;;;;;;15.60;11.57;;;12.80;99.90;;;;;;4989146;28;20042;-73
2023/10/26 12:05:42;;;;;;;17.60;11.73;;;12.80;99.90;;;;;;5001687;28;20046;-73
2023/10/26 12:08:08;;;;;;;19.00;11.68;;;12.70;99.90;;;;;;5001663;28;20048;-73
2023/10/26 12:10:34;;;;;;;18.17;11.15;;;12.60;99.90;;;;;;4983993;28;20121;-73
2023/10/26 12:13:00;;;;;;;15.85;11.55;;;12.50;99.90;;;;;;4997772;28;20085;-73
2023/10/26 12:15:26;;;;;;;17.27;11.13;;;12.50;99.90;;;;;;5000902;28;20037;-73
2023/10/26 12:17:52;;;;;;;14.77;10.48;;;12.50;99.90;;;;;;4998042;28;20060;-73
2023/10/26 12:20:18;;;;;;;16.40;11.90;;;12.50;99.90;;;;;;5001452;28;20038;-73
2023/10/26 12:22:44;;;;;;;20.15;10.98;;;12.40;99.90;;;;;;4996167;28;20042;-73
2023/10/26 12:25:13;;;;;;;18.63;11.23;;;12.40;99.90;;;;;;4994777;28;20042;-73
2023/10/26 12:27:39;;;;;;;14.40;10.45;;;12.40;99.90;;;;;;4994347;28;20066;-73
2023/10/26 12:30:06;;;;;;;17.27;11.25;;;12.50;99.90;;;;;;4994895;28;20042;-73